Time;durP1;ratioP1;P1;durP2;ratioP2;P2;SDS_P1;SDS_P2;PMS_P1;PMS_P2;Temp;Humidity;BMP_temperature;BMP_pressure;BME280_temperature;BME280_humidity;BME280_pressure;Samples;Min_cycle;Max_cycle;Signal;HPM_P1;HPM_P2
2022/03/28 00:00:38;;;;;;;22.60;4.70;;;;;;;-145.18;100.00;46578.34;4974283;28;20097;-64
2022/03/28 00:03:05;;;;;;;29.53;5.93;;;;;;;-145.18;100.00;46582.25;4973255;28;20114;-64
2022/03/28 00:05:31;;;;;;;14.60;4.53;;;;;;;-145.18;100.00;46576.41;4973789;28;20303;-64
2022/03/28 00:07:56;;;;;;;21.23;4.70;;;;;;;-145.18;100.00;46586.16;4973145;28;20629;-64
2022/03/28 00:10:21;;;;;;;19.47;4.30;;;;;;;-145.18;100.00;46584.22;4973820;28;20085;-64
2022/03/28 00:12:47;;;;;;;21.60;4.80;;;;;;;-145.18;100.00;46584.22;4972086;28;20039;-65
2022/03/28 00:15:13;;;;;;;25.13;4.63;;;;;;;-145.18;100.00;46578.34;4973520;28;20562;-65
2022/03/28 00:17:38;;;;;;;25.63;5.10;;;;;;;-145.18;100.00;46582.25;4973376;28;20308;-64
2022/03/28 00:20:06;;;;;;;25.70;4.47;;;;;;;-145.18;100.00;46570.53;4973072;28;20114;-64
2022/03/28 00:22:32;;;;;;;22.30;5.03;;;;;;;-145.18;100.00;46578.34;4973140;28;20066;-64
2022/03/28 00:24:57;;;;;;;21.83;4.40;;;;;;;-145.18;100.00;46578.34;4972675;28;20630;-64
2022/03/28 00:27:22;;;;;;;22.53;4.50;;;;;;;-145.18;100.00;46576.41;4978926;28;20204;-64
2022/03/28 00:29:48;;;;;;;19.80;5.00;;;;;;;-145.18;100.00;46568.59;4973279;28;20039;-64
2022/03/28 00:32:14;;;;;;;24.03;4.83;;;;;;;-145.18;100.00;46562.72;4978755;28;20046;-64
2022/03/28 00:34:40;;;;;;;21.53;4.43;;;;;;;-145.18;100.00;46564.69;4993141;28;20066;-64
2022/03/28 00:37:06;;;;;;;26.63;4.77;;;;;;;-145.18;100.00;46566.63;4992029;28;20117;-64
2022/03/28 00:39:32;;;;;;;22.00;4.73;;;;;;;-145.18;100.00;46570.53;4993085;28;20347;-64
2022/03/28 00:41:57;;;;;;;30.80;6.07;;;;;;;-145.18;100.00;46570.53;4992092;28;20688;-64
2022/03/28 00:44:23;;;;;;;24.33;4.60;;;;;;;-145.18;100.00;46568.59;4993038;28;20030;-64
2022/03/28 00:46:49;;;;;;;19.27;4.57;;;;;;;-145.18;100.00;46564.69;4991980;28;20041;-64
2022/03/28 00:49:16;;;;;;;25.10;5.40;;;;;;;-145.18;100.00;46568.59;4992506;28;20036;-64
2022/03/28 00:51:42;;;;;;;22.90;4.70;;;;;;;-145.18;100.00;46568.59;4992330;28;20395;-64
2022/03/28 00:54:08;;;;;;;24.70;5.23;;;;;;;-145.18;100.00;46564.69;4991099;28;20457;-64
2022/03/28 00:56:34;;;;;;;26.47;5.00;;;;;;;-145.18;100.00;46558.81;4992400;28;20041;-63
2022/03/28 00:59:00;;;;;;;21.07;4.40;;;;;;;-145.18;100.00;46568.59;4991829;28;20280;-64
2022/03/28 01:01:26;;;;;;;18.80;5.27;;;;;;;-145.18;100.00;46560.78;4991661;28;20074;-64
2022/03/28 01:03:52;;;;;;;26.77;4.83;;;;;;;-145.18;100.00;46566.63;4991580;28;20383;-64
2022/03/28 01:06:18;;;;;;;29.53;5.27;;;;;;;-145.18;100.00;46560.78;4992538;28;20357;-64
2022/03/28 01:08:43;;;;;;;19.37;4.10;;;;;;;-145.18;100.00;46558.81;4991900;28;20038;-64
2022/03/28 01:11:13;;;;;;;23.90;4.30;;;;;;;-145.18;100.00;46560.78;4992153;28;20049;-64
2022/03/28 01:13:41;;;;;;;23.77;5.60;;;;;;;-145.18;100.00;46560.78;4992146;28;20084;-64
2022/03/28 01:16:08;;;;;;;30.30;5.00;;;;;;;-145.18;100.00;46562.72;4992210;28;20280;-64
2022/03/28 01:18:34;;;;;;;23.70;4.37;;;;;;;-145.18;100.00;46556.88;4991531;28;20272;-64
2022/03/28 01:21:01;;;;;;;29.27;5.10;;;;;;;-145.18;100.00;46560.78;4974121;28;20279;-64
2022/03/28 01:23:27;;;;;;;30.87;5.07;;;;;;;-145.18;100.00;46554.91;4990311;28;20295;-64
2022/03/28 01:25:53;;;;;;;24.30;5.23;;;;;;;-145.18;100.00;46551.00;4991655;28;20447;-64
2022/03/28 01:28:20;;;;;;;19.47;4.43;;;;;;;-145.18;100.00;46543.19;4991455;28;20058;-64
2022/03/28 01:30:46;;;;;;;22.90;4.50;;;;;;;-145.18;100.00;46549.06;4991019;28;20066;-64
2022/03/28 01:33:11;;;;;;;28.97;4.97;;;;;;;-145.18;100.00;46554.91;4990671;28;20367;-64
2022/03/28 01:35:38;;;;;;;22.30;5.17;;;;;;;-145.18;100.00;46551.00;4991838;28;20354;-64
2022/03/28 01:38:15;;;;;;;27.90;5.20;;;;;;;-145.18;100.00;46554.91;4981857;28;20042;-64
2022/03/28 01:40:42;;;;;;;23.63;5.73;;;;;;;-145.18;100.00;46547.09;4971162;28;20288;-64
2022/03/28 01:43:08;;;;;;;26.67;4.80;;;;;;;-145.18;100.00;46541.25;4971362;28;20771;-64
2022/03/28 01:45:34;;;;;;;24.83;5.00;;;;;;;-145.18;100.00;46545.16;4972046;28;20335;-64
2022/03/28 01:47:59;;;;;;;27.93;5.30;;;;;;;-145.18;100.00;46551.00;4971422;28;20084;-64
2022/03/28 01:50:25;;;;;;;24.80;4.60;;;;;;;-145.18;100.00;46547.09;4972229;28;20118;-64
2022/03/28 01:52:51;;;;;;;24.60;5.50;;;;;;;-145.18;100.00;46549.06;4971409;28;20474;-64
2022/03/28 01:55:16;;;;;;;27.77;5.30;;;;;;;-145.18;100.00;46545.16;4972080;28;20070;-64
2022/03/28 01:57:43;;;;;;;27.37;4.03;;;;;;;-145.18;100.00;46552.97;4971593;28;20027;-64
2022/03/28 02:03:01;;;;;;;21.87;4.60;;;;;;;-145.18;100.00;46554.91;5144723;22;20293;-65
2022/03/28 02:05:27;;;;;;;23.43;5.70;;;;;;;-145.18;100.00;46554.91;4969022;28;20300;-65
2022/03/28 02:07:52;;;;;;;14.77;4.63;;;;;;;-145.18;100.00;46551.00;4971458;28;20035;-65
2022/03/28 02:10:21;;;;;;;34.77;4.60;;;;;;;-145.18;100.00;46547.09;4971632;28;20276;-65
2022/03/28 02:12:48;;;;;;;26.57;4.97;;;;;;;-145.18;100.00;46549.06;4969592;28;20038;-65
2022/03/28 02:15:14;;;;;;;23.73;5.23;;;;;;;-145.18;100.00;46551.00;4971919;28;20296;-65
2022/03/28 02:17:39;;;;;;;24.77;4.97;;;;;;;-145.18;100.00;46551.00;4971584;28;20290;-64
2022/03/28 02:20:08;;;;;;;19.63;5.63;;;;;;;-145.18;100.00;46543.19;4971787;28;20269;-64
2022/03/28 02:22:33;;;;;;;25.40;5.00;;;;;;;-145.18;100.00;46547.09;4971350;28;20085;-64
2022/03/28 02:24:59;;;;;;;23.83;5.37;;;;;;;-145.18;100.00;46547.09;4971538;28;20675;-64
2022/03/28 02:27:25;;;;;;;21.70;4.23;;;;;;;-145.18;100.00;46545.16;4971154;28;20050;-65
2022/03/28 02:29:50;;;;;;;20.93;4.63;;;;;;;-145.18;100.00;46556.88;4971843;28;20276;-64
2022/03/28 02:32:16;;;;;;;23.80;5.57;;;;;;;-145.18;100.00;46554.91;4954198;28;20121;-64
2022/03/28 02:34:41;;;;;;;18.73;4.10;;;;;;;-145.18;100.00;46551.00;4971645;28;20036;-64
2022/03/28 02:37:07;;;;;;;25.67;4.97;;;;;;;-145.18;100.00;46551.00;4971154;28;20038;-64
2022/03/28 02:39:32;;;;;;;25.33;4.90;;;;;;;-145.18;100.00;46549.06;4971671;28;20052;-64
2022/03/28 02:41:57;;;;;;;27.13;5.87;;;;;;;-145.18;100.00;46549.06;4972625;28;20462;-64
2022/03/28 02:44:23;;;;;;;24.37;5.10;;;;;;;-145.18;100.00;46549.06;4975800;28;20030;-64
2022/03/28 02:46:49;;;;;;;22.67;7.43;;;;;;;-145.18;100.00;46554.91;4974939;28;20118;-64
2022/03/28 02:49:15;;;;;;;25.83;5.33;;;;;;;-145.18;100.00;46558.81;4950514;29;20039;-64
2022/03/28 02:51:40;;;;;;;23.10;4.97;;;;;;;-145.18;100.00;46549.06;4955939;29;20046;-65
2022/03/28 02:54:06;;;;;;;23.90;5.20;;;;;;;-145.18;100.00;46551.00;4956160;29;20273;-65
2022/03/28 02:56:32;;;;;;;22.57;4.80;;;;;;;-145.18;100.00;46556.88;4956292;29;20031;-65
2022/03/28 02:58:58;;;;;;;25.07;4.60;;;;;;;-145.18;100.00;46558.81;4955598;29;20039;-64
2022/03/28 03:01:23;;;;;;;22.00;4.93;;;;;;;-145.18;100.00;46564.69;4955903;29;20369;-65
2022/03/28 03:03:48;;;;;;;32.77;6.73;;;;;;;-145.18;100.00;46558.81;4955405;29;20047;-64
2022/03/28 03:06:14;;;;;;;24.47;5.17;;;;;;;-145.18;100.00;46558.81;4956016;29;20641;-64
2022/03/28 03:08:39;;;;;;;34.67;5.27;;;;;;;-145.18;100.00;46558.81;4955587;29;20034;-65
2022/03/28 03:11:04;;;;;;;20.80;4.13;;;;;;;-145.18;100.00;46570.53;4955400;29;20353;-65
2022/03/28 03:13:30;;;;;;;24.00;5.03;;;;;;;-145.18;100.00;46613.50;4955540;29;20118;-65
2022/03/28 03:15:55;;;;;;;25.27;4.77;;;;;;;-145.18;100.00;46621.31;4955469;28;20050;-65
2022/03/28 03:18:21;;;;;;;23.30;4.90;;;;;;;-145.18;100.00;46633.06;4922086;29;20039;-65
2022/03/28 03:20:46;;;;;;;22.83;4.53;;;;;;;-145.18;100.00;46650.63;4955417;29;20050;-65
2022/03/28 03:23:11;;;;;;;26.33;5.47;;;;;;;-145.18;100.00;46636.94;4955140;29;20046;-65
2022/03/28 03:25:37;;;;;;;29.70;4.97;;;;;;;-145.18;100.00;46636.94;4938247;29;20087;-65
2022/03/28 03:28:03;;;;;;;26.33;5.77;;;;;;;-145.18;100.00;46646.72;4937410;29;20074;-65
2022/03/28 03:30:29;;;;;;;29.17;5.03;;;;;;;-145.18;100.00;46640.88;4955497;29;20032;-65
2022/03/28 03:32:55;;;;;;;25.00;5.73;;;;;;;-145.18;100.00;46644.78;4954832;29;20031;-65
2022/03/28 03:35:21;;;;;;;32.53;5.90;;;;;;;-145.18;100.00;46660.41;4955064;29;20055;-65
2022/03/28 03:37:46;;;;;;;28.27;6.57;;;;;;;-145.18;100.00;46660.41;4959457;28;20367;-65
2022/03/28 03:40:12;;;;;;;35.10;5.90;;;;;;;-145.18;100.00;46640.88;4974367;28;20476;-65
2022/03/28 03:42:38;;;;;;;26.57;5.27;;;;;;;-145.18;100.00;46633.06;4974128;28;20034;-64
2022/03/28 03:45:05;;;;;;;27.43;5.30;;;;;;;-145.18;100.00;46629.13;4973871;28;20304;-65
2022/03/28 03:47:31;;;;;;;25.37;5.47;;;;;;;-145.18;100.00;46631.09;4956736;28;20714;-65
2022/03/28 03:49:56;;;;;;;29.17;5.50;;;;;;;-145.18;100.00;46640.88;4974249;28;20426;-65
2022/03/28 03:52:22;;;;;;;28.90;5.33;;;;;;;-145.18;100.00;46660.41;4973747;28;20462;-65
2022/03/28 03:54:47;;;;;;;30.23;7.43;;;;;;;-145.18;100.00;46640.88;4973491;28;20062;-65
2022/03/28 03:57:13;;;;;;;26.53;4.83;;;;;;;-145.18;100.00;46646.72;4973878;28;20042;-65
2022/03/28 03:59:38;;;;;;;27.40;5.43;;;;;;;-145.18;100.00;46646.72;4974235;28;20039;-65
2022/03/28 04:02:04;;;;;;;20.83;4.97;;;;;;;-145.18;100.00;46650.63;4956031;28;20097;-65
2022/03/28 04:04:29;;;;;;;23.30;5.03;;;;;;;-145.18;100.00;46652.59;4956613;28;20031;-64
2022/03/28 04:06:55;;;;;;;20.23;5.03;;;;;;;-145.18;100.00;46652.59;4973573;28;20297;-65
2022/03/28 04:09:20;;;;;;;31.17;6.40;;;;;;;-145.18;100.00;46654.53;4973880;28;20030;-65
2022/03/28 04:11:47;;;;;;;28.40;5.73;;;;;;;-145.18;100.00;46654.53;4973714;28;20023;-65
2022/03/28 04:14:12;;;;;;;30.17;5.32;;;;;;;-145.18;100.00;46654.53;4973501;28;20026;-65
2022/03/28 04:16:38;;;;;;;27.07;5.00;;;;;;;-145.18;100.00;46660.41;4973758;28;20487;-65
2022/03/28 04:19:03;;;;;;;29.30;5.63;;;;;;;-145.18;100.00;46656.50;4973228;28;20043;-65
2022/03/28 04:21:28;;;;;;;30.60;6.00;;;;;;;-145.18;100.00;46662.34;4973797;28;20043;-64
2022/03/28 04:23:54;;;;;;;34.20;6.10;;;;;;;-145.18;100.00;46666.25;4972872;28;20027;-65
2022/03/28 04:26:19;;;;;;;26.63;5.43;;;;;;;-145.18;100.00;46666.25;4972730;28;20039;-65
2022/03/28 04:28:45;;;;;;;25.63;4.70;;;;;;;-145.18;100.00;46660.41;4955929;28;20497;-65
2022/03/28 04:31:10;;;;;;;22.93;5.23;;;;;;;-145.18;100.00;46662.34;4973435;28;20035;-65
2022/03/28 04:33:37;;;;;;;28.03;5.30;;;;;;;-145.18;100.00;46660.41;4973007;28;20035;-65
2022/03/28 04:36:03;;;;;;;21.50;5.50;;;;;;;-145.18;100.00;46662.34;4973302;28;20030;-65
2022/03/28 04:38:29;;;;;;;31.80;5.97;;;;;;;-145.18;100.00;46658.44;4973265;28;20046;-65
2022/03/28 04:40:54;;;;;;;27.03;5.80;;;;;;;-145.18;100.00;46660.41;4973194;28;20303;-65
2022/03/28 04:43:20;;;;;;;28.13;5.50;;;;;;;-145.18;100.00;46660.41;4972236;28;20110;-64
2022/03/28 04:45:46;;;;;;;31.83;6.20;;;;;;;-145.18;100.00;46658.44;4973201;28;20041;-65
2022/03/28 04:48:12;;;;;;;18.40;5.80;;;;;;;-145.18;100.00;46664.31;4972717;28;20633;-65
2022/03/28 04:50:37;;;;;;;23.65;4.60;;;;;;;-145.18;100.00;46658.44;4973012;28;20127;-65
2022/03/28 04:53:03;;;;;;;29.70;5.33;;;;;;;-145.18;100.00;46658.44;4972381;28;20486;-65
2022/03/28 04:55:28;;;;;;;27.07;6.50;;;;;;;-145.18;100.00;46654.53;4955874;28;20031;-65
2022/03/28 04:57:54;;;;;;;28.87;6.60;;;;;;;-145.18;100.00;46658.44;4972573;28;20144;-65
2022/03/28 05:00:19;;;;;;;32.93;5.83;;;;;;;-145.18;100.00;46656.50;4971853;28;20027;-65
2022/03/28 05:02:44;;;;;;;42.90;7.87;;;;;;;-145.18;100.00;46662.34;4947924;28;20177;-65
2022/03/28 05:05:10;;;;;;;27.00;7.13;;;;;;;-145.18;100.00;46660.41;4971004;28;20102;-65
2022/03/28 05:07:36;;;;;;;31.80;7.40;;;;;;;-145.18;100.00;46658.44;4971529;28;20030;-65
2022/03/28 05:10:03;;;;;;;37.80;7.00;;;;;;;-145.18;100.00;46658.44;4971730;28;20031;-64
2022/03/28 05:12:29;;;;;;;30.20;6.95;;;;;;;-145.18;100.00;46656.50;4955957;28;20444;-65
2022/03/28 05:14:55;;;;;;;30.27;6.20;;;;;;;-145.18;100.00;46658.44;4953334;28;20054;-65
2022/03/28 05:17:21;;;;;;;29.80;6.93;;;;;;;-145.18;100.00;46660.41;4952483;28;20392;-65
2022/03/28 05:19:46;;;;;;;26.45;6.72;;;;;;;-145.18;100.00;46662.34;4953281;28;20484;-64
2022/03/28 05:22:12;;;;;;;24.57;5.73;;;;;;;-145.18;100.00;46656.50;4952665;29;20047;-65
2022/03/28 05:24:37;;;;;;;27.27;6.23;;;;;;;-145.18;100.00;46658.44;4952859;29;20039;-65
2022/03/28 05:27:03;;;;;;;32.60;6.03;;;;;;;-145.18;100.00;46654.53;4952940;29;20115;-65
2022/03/28 05:29:28;;;;;;;23.93;5.67;;;;;;;-145.18;100.00;46660.41;4952817;29;20487;-65
2022/03/28 05:31:54;;;;;;;29.00;6.50;;;;;;;-145.18;100.00;46658.44;4952974;28;20118;-65
2022/03/28 05:34:19;;;;;;;31.70;6.63;;;;;;;-145.18;100.00;46660.41;4952434;29;20055;-65
2022/03/28 05:36:45;;;;;;;34.90;6.97;;;;;;;-145.18;100.00;46654.53;4953043;29;20093;-65
2022/03/28 05:39:11;;;;;;;39.87;6.40;;;;;;;-145.18;100.00;46660.41;4952527;29;20432;-65
2022/03/28 05:41:37;;;;;;;29.15;6.38;;;;;;;-145.18;100.00;46654.53;4952367;28;20042;-65
2022/03/28 05:44:03;;;;;;;25.43;6.70;;;;;;;-145.18;100.00;46658.44;4952421;29;20035;-65
2022/03/28 05:46:28;;;;;;;27.43;5.80;;;;;;;-145.18;100.00;46658.44;4952876;29;20046;-65
2022/03/28 05:48:54;;;;;;;28.93;7.63;;;;;;;-145.18;100.00;46660.41;4952208;29;20081;-65
2022/03/28 05:51:20;;;;;;;22.67;6.37;;;;;;;-145.18;100.00;46654.53;4952788;29;20492;-65
2022/03/28 05:53:45;;;;;;;26.40;6.87;;;;;;;-145.18;100.00;46654.53;4952457;29;20480;-65
2022/03/28 05:56:11;;;;;;;26.87;7.00;;;;;;;-145.18;100.00;46656.50;4952591;28;20485;-65
2022/03/28 05:58:36;;;;;;;22.73;6.90;;;;;;;-145.18;100.00;46652.59;4952365;29;20559;-65
2022/03/28 06:01:02;;;;;;;27.53;7.37;;;;;;;-145.18;100.00;46654.53;4952304;29;20035;-65
2022/03/28 06:03:27;;;;;;;26.50;7.47;;;;;;;-145.18;100.00;46648.69;4940962;29;20058;-65
2022/03/28 06:05:53;;;;;;;29.50;7.53;;;;;;;-145.18;100.00;46652.59;4952145;29;20086;-65
2022/03/28 06:08:18;;;;;;;39.80;8.20;;;;;;;-145.18;100.00;46648.69;4941070;28;20080;-65
2022/03/28 06:10:43;;;;;;;34.27;7.80;;;;;;;-145.18;100.00;46648.69;4933472;29;20369;-65
2022/03/28 06:13:09;;;;;;;38.10;8.77;;;;;;;-145.18;100.00;46644.78;4931376;29;20036;-65
2022/03/28 06:15:37;;;;;;;40.77;7.57;;;;;;;-145.18;100.00;46640.88;4933515;29;20039;-65
2022/03/28 06:18:05;;;;;;;28.73;6.43;;;;;;;-145.18;100.00;46644.78;4932343;29;20401;-65
2022/03/28 06:20:32;;;;;;;34.70;8.10;;;;;;;-145.18;100.00;46644.78;4937418;28;20087;-65
2022/03/28 06:22:59;;;;;;;33.22;9.65;;;;;;;-145.18;100.00;46636.94;4933102;28;20285;-66
2022/03/28 06:25:24;;;;;;;35.30;8.20;;;;;;;-145.18;100.00;46638.91;4933283;29;20532;-65
2022/03/28 06:27:51;;;;;;;32.75;9.68;;;;;;;-145.18;100.00;46635.00;4932568;29;20146;-65
2022/03/28 06:30:16;;;;;;;34.37;7.83;;;;;;;-145.18;100.00;46633.06;4932066;29;20851;-65
2022/03/28 06:32:42;;;;;;;27.20;7.77;;;;;;;-145.18;100.00;46633.06;4931823;29;20484;-65
2022/03/28 06:35:08;;;;;;;35.00;8.87;;;;;;;-145.18;100.00;46629.13;4932845;29;20032;-65
2022/03/28 06:37:35;;;;;;;36.13;9.30;;;;;;;-145.18;100.00;46625.22;4932807;29;20067;-65
2022/03/28 06:40:03;;;;;;;32.92;8.55;;;;;;;-145.18;100.00;46617.41;4932465;29;20274;-65
2022/03/28 06:42:30;;;;;;;29.80;8.90;;;;;;;-145.18;100.00;46619.38;4939188;28;20098;-65
2022/03/28 06:44:55;;;;;;;30.20;9.10;;;;;;;-145.18;100.00;46613.50;4949915;29;20281;-65
2022/03/28 06:47:20;;;;;;;35.63;9.40;;;;;;;-145.18;100.00;46617.41;4951717;28;20301;-65
2022/03/28 06:49:46;;;;;;;37.17;9.33;;;;;;;-145.18;100.00;46609.59;4951166;28;20122;-65
2022/03/28 06:52:11;;;;;;;33.30;8.93;;;;;;;-145.18;100.00;46605.69;4951515;28;20118;-65
2022/03/28 06:54:37;;;;;;;45.83;9.63;;;;;;;-145.18;100.00;46607.66;4951237;28;20540;-66
2022/03/28 06:57:03;;;;;;;29.10;9.23;;;;;;;-145.18;100.00;46609.59;4951112;28;20042;-65
2022/03/28 06:59:29;;;;;;;37.40;10.03;;;;;;;-145.18;100.00;46597.88;4951329;28;20058;-65
2022/03/28 07:01:55;;;;;;;31.03;10.33;;;;;;;-145.18;100.00;46586.16;4953113;28;20038;-65
2022/03/28 07:04:21;;;;;;;35.30;9.07;;;;;;;-145.18;100.00;46578.34;4970184;28;20276;-65
2022/03/28 07:06:47;;;;;;;33.43;8.80;;;;;;;-145.18;100.00;46582.25;4970968;28;20480;-66
2022/03/28 07:09:13;;;;;;;41.03;10.27;;;;;;;-145.18;100.00;46570.53;4969983;28;20272;-65
2022/03/28 07:11:38;;;;;;;33.27;9.53;;;;;;;-145.18;100.00;46564.69;4970768;28;20519;-65
2022/03/28 07:14:03;;;;;;;33.07;9.60;;;;;;;-145.18;100.00;46556.88;4970036;28;20411;-65
2022/03/28 07:16:29;;;;;;;38.47;9.97;;;;;;;-145.18;100.00;46556.88;4970587;28;20031;-65
2022/03/28 07:18:54;;;;;;;41.83;10.53;;;;;;;-145.18;100.00;46547.09;4970085;28;20030;-65
2022/03/28 07:21:19;;;;;;;34.00;9.93;;;;;;;-145.18;100.00;46537.34;4970632;28;20023;-65
2022/03/28 07:23:45;;;;;;;33.13;9.33;;;;;;;-145.18;100.00;46537.34;4970087;28;20043;-64
2022/03/28 07:26:11;;;;;;;30.30;10.07;;;;;;;-145.18;100.00;46527.56;4969347;28;20034;-64
2022/03/28 07:28:39;;;;;;;33.73;9.40;;;;;;;-145.18;100.00;46523.66;4954037;28;20041;-64
2022/03/28 07:31:08;;;;;;;39.07;10.43;;;;;;;-145.18;100.00;46519.75;4957125;28;20026;-64
2022/03/28 07:33:36;;;;;;;33.43;10.17;;;;;;;-145.18;100.00;46519.75;4973938;28;20705;-64
2022/03/28 07:36:03;;;;;;;26.17;10.13;;;;;;;-145.18;100.00;46517.81;4974286;28;20272;-64
2022/03/28 07:38:28;;;;;;;32.10;10.03;;;;;;;-145.18;100.00;46511.94;4949035;28;20281;-64
2022/03/28 07:40:53;;;;;;;31.27;10.67;;;;;;;-145.18;100.00;46513.91;4974092;28;20729;-64
2022/03/28 07:43:19;;;;;;;33.57;10.77;;;;;;;-145.18;100.00;46511.94;4972698;28;20066;-64
2022/03/28 07:45:44;;;;;;;26.87;9.63;;;;;;;-145.18;100.00;46510.00;4956717;28;20038;-65
2022/03/28 07:48:10;;;;;;;29.13;10.10;;;;;;;-145.18;100.00;46511.94;4973822;28;20062;-64
2022/03/28 07:50:35;;;;;;;38.03;11.33;;;;;;;-145.18;100.00;46511.94;4974114;28;20082;-64
2022/03/28 07:53:01;;;;;;;37.83;9.73;;;;;;;-145.18;100.00;46513.91;4973307;28;20050;-64
2022/03/28 07:55:27;;;;;;;27.60;9.77;;;;;;;-145.18;100.00;46515.84;4974010;28;20031;-64
2022/03/28 07:57:53;;;;;;;30.43;10.00;;;;;;;-145.18;100.00;46515.84;4955641;28;20594;-64
2022/03/28 08:00:19;;;;;;;29.73;11.00;;;;;;;-145.18;100.00;46519.75;4973747;28;20265;-64
2022/03/28 08:02:44;;;;;;;35.63;10.60;;;;;;;-145.18;100.00;46517.81;4973196;28;20133;-64
2022/03/28 08:05:10;;;;;;;35.50;11.50;;;;;;;-145.18;100.00;46515.84;4973169;28;20771;-64
2022/03/28 08:07:36;;;;;;;35.03;10.87;;;;;;;-145.18;100.00;46521.72;4973755;28;20041;-64
2022/03/28 08:10:05;;;;;;;36.13;11.80;;;;;;;-145.18;100.00;46513.91;4973065;28;20289;-64
2022/03/28 08:12:30;;;;;;;34.83;10.67;;;;;;;-145.18;100.00;46521.72;4973397;28;20086;-64
2022/03/28 08:14:56;;;;;;;35.53;10.90;;;;;;;-145.18;100.00;46533.44;4972913;28;20733;-64
2022/03/28 08:17:22;;;;;;;32.83;10.50;;;;;;;-145.18;100.00;46529.53;4973379;28;20042;-64
2022/03/28 08:19:47;;;;;;;30.53;10.33;;;;;;;-145.18;100.00;46525.63;4973293;28;20375;-64
2022/03/28 08:22:14;;;;;;;32.40;10.67;;;;;;;-145.18;100.00;46531.47;4973245;28;20470;-64
2022/03/28 08:24:39;;;;;;;30.93;9.80;;;;;;;-145.18;100.00;46535.38;4972956;28;20026;-64
2022/03/28 08:27:06;;;;;;;34.67;11.20;;;;;;;-145.18;100.00;46545.16;4973100;28;20753;-64
2022/03/28 08:29:32;;;;;;;34.23;10.90;;;;;;;-145.18;100.00;46527.56;4973101;28;20503;-64
2022/03/28 08:31:59;;;;;;;32.90;12.27;;;;;;;-145.18;100.00;46537.34;4973086;28;20268;-64
2022/03/28 08:34:25;;;;;;;29.97;11.93;;;;;;;-145.18;100.00;46535.38;4972320;28;20261;-64
2022/03/28 08:36:50;;;;;;;31.43;11.27;;;;;;;-145.18;100.00;46537.34;4973368;28;20930;-64
2022/03/28 08:39:16;;;;;;;28.43;12.10;;;;;;;-145.18;100.00;46545.16;4969005;28;20514;-65
2022/03/28 08:41:42;;;;;;;42.27;11.63;;;;;;;-145.18;100.00;46549.06;4973202;28;20042;-64
2022/03/28 08:44:07;;;;;;;26.20;12.20;;;;;;;-145.18;100.00;46547.09;4972165;28;20082;-64
2022/03/28 08:46:34;;;;;;;35.00;12.27;;;;;;;-145.18;100.00;46547.09;4972911;28;21279;-65
2022/03/28 08:49:00;;;;;;;37.23;13.37;;;;;;;-145.18;100.00;46547.09;4972219;28;20042;-65
2022/03/28 08:51:27;;;;;;;29.67;11.23;;;;;;;-145.18;100.00;46549.06;4972635;28;20273;-64
2022/03/28 08:53:54;;;;;;;33.13;11.73;;;;;;;-145.18;100.00;46543.19;4971334;28;20050;-64
2022/03/28 08:56:20;;;;;;;29.27;13.30;;;;;;;-145.18;100.00;46539.28;4972696;28;20280;-64
2022/03/28 08:58:45;;;;;;;31.00;13.40;;;;;;;-145.18;100.00;46543.19;4972323;28;20265;-64
2022/03/28 09:01:11;;;;;;;38.07;14.20;;;;;;;-145.18;100.00;46541.25;4954915;28;20026;-65
2022/03/28 09:03:38;;;;;;;36.97;13.83;;;;;;;-145.18;100.00;46545.16;4971922;28;20062;-65
2022/03/28 09:06:38;;;;;;;36.10;12.13;;;;;;;-145.18;100.00;46547.09;4971675;28;20046;-64
2022/03/28 09:09:22;;;;;;;34.37;13.97;;;;;;;-145.18;100.00;46551.00;4971626;28;20287;-64
2022/03/28 09:11:54;;;;;;;28.03;12.30;;;;;;;-145.18;100.00;46541.25;4972402;28;20356;-64
2022/03/28 09:14:24;;;;;;;30.27;12.63;;;;;;;-145.18;100.00;46543.19;4971827;28;20269;-64
2022/03/28 09:17:09;;;;;;;35.53;13.10;;;;;;;-145.18;100.00;46551.00;4972170;28;20315;-65
2022/03/28 09:19:46;;;;;;;29.53;13.53;;;;;;;-145.18;100.00;46566.63;4971954;28;20323;-65
2022/03/28 09:22:17;;;;;;;31.77;12.97;;;;;;;-145.18;100.00;46560.78;4955576;28;20280;-65
2022/03/28 09:24:45;;;;;;;34.70;12.77;;;;;;;-145.18;100.00;46554.91;4985490;28;20339;-65
2022/03/28 09:27:39;;;;;;;30.20;12.67;;;;;;;-145.18;100.00;46574.44;4954368;28;20863;-65
2022/03/28 09:30:16;;;;;;;34.57;13.20;;;;;;;-145.18;100.00;46556.88;4971441;28;20257;-65
2022/03/28 09:32:44;;;;;;;34.23;14.00;;;;;;;-145.18;100.00;46560.78;4972068;28;20264;-65
2022/03/28 09:35:24;;;;;;;30.97;14.53;;;;;;;-145.18;100.00;46623.28;4953948;28;20347;-65
2022/03/28 09:38:07;;;;;;;28.90;13.47;;;;;;;-145.18;100.00;46597.88;4972120;28;20268;-65
2022/03/28 09:40:42;;;;;;;35.20;14.63;;;;;;;-145.18;100.00;46590.06;4972110;28;20590;-65
2022/03/28 09:43:16;;;;;;;31.15;13.43;;;;;;;-145.18;100.00;46605.69;4971255;28;20269;-65
2022/03/28 09:45:46;;;;;;;27.63;12.80;;;;;;;-145.18;100.00;46588.13;4971816;28;20035;-65
2022/03/28 09:48:14;;;;;;;31.60;13.97;;;;;;;-145.18;100.00;46592.03;4971272;28;20673;-65
2022/03/28 09:50:49;;;;;;;33.30;14.07;;;;;;;-145.18;100.00;46603.75;4971122;28;20335;-65
2022/03/28 09:53:27;;;;;;;32.77;15.63;;;;;;;-145.18;100.00;46595.94;4971040;28;20268;-65
2022/03/28 09:56:10;;;;;;;34.73;14.87;;;;;;;-145.18;100.00;46603.75;4971509;28;20277;-65
2022/03/28 09:58:49;;;;;;;31.03;14.53;;;;;;;-145.18;100.00;46613.50;4960200;28;20363;-65
2022/03/28 10:01:24;;;;;;;32.33;15.70;;;;;;;-145.18;100.00;46582.25;4970688;28;20269;-65
2022/03/28 10:03:52;;;;;;;34.67;14.40;;;;;;;-145.18;100.00;46607.66;4969922;28;20359;-65
2022/03/28 10:06:18;;;;;;;32.97;16.13;;;;;;;-145.18;100.00;46609.59;4971074;28;20075;-65
2022/03/28 10:08:45;;;;;;;42.70;14.37;;;;;;;-145.18;100.00;46605.69;4971288;28;20268;-65
2022/03/28 10:11:11;;;;;;;29.60;15.40;;;;;;;-145.18;100.00;46609.59;4970856;28;20287;-65
2022/03/28 10:13:37;;;;;;;33.40;15.80;;;;;;;-145.18;100.00;46588.13;4970651;28;20742;-65
2022/03/28 10:16:04;;;;;;;37.90;15.40;;;;;;;-145.18;100.00;46582.25;4971119;28;20052;-65
2022/03/28 10:18:31;;;;;;;33.57;14.80;;;;;;;-145.18;100.00;46593.97;4966630;28;20789;-65
2022/03/28 10:21:00;;;;;;;27.47;14.33;;;;;;;-145.18;100.00;46593.97;4970927;28;20073;-65
2022/03/28 10:23:32;;;;;;;27.70;15.10;;;;;;;-145.18;100.00;46599.84;4970759;28;20268;-65
2022/03/28 10:25:58;;;;;;;32.33;15.47;;;;;;;-145.18;100.00;46593.97;4970849;28;20562;-65
2022/03/28 10:28:23;;;;;;;26.67;14.13;;;;;;;-145.18;100.00;46593.97;4970708;28;20360;-65
2022/03/28 10:31:06;;;;;;;31.37;16.00;;;;;;;-145.18;100.00;46586.16;4971207;28;20027;-65
2022/03/28 10:33:32;;;;;;;28.00;14.57;;;;;;;-145.18;100.00;46611.56;4970578;28;20062;-65
2022/03/28 10:36:18;;;;;;;31.67;16.80;;;;;;;-145.18;100.00;46578.34;4952926;28;20066;-65
2022/03/28 10:38:43;;;;;;;34.63;16.13;;;;;;;-145.18;100.00;46586.16;4953146;28;20026;-65
2022/03/28 10:41:15;;;;;;;35.27;17.70;;;;;;;-145.18;100.00;46629.13;4953634;28;20541;-65
2022/03/28 10:43:41;;;;;;;37.00;16.73;;;;;;;-145.18;100.00;46621.31;4953429;28;20057;-65
2022/03/28 10:46:09;;;;;;;32.63;16.60;;;;;;;-145.18;100.00;46631.09;4966624;28;20476;-65
2022/03/28 10:48:40;;;;;;;32.87;17.20;;;;;;;-145.18;100.00;46633.06;4970520;28;20035;-65
2022/03/28 10:51:18;;;;;;;34.30;17.57;;;;;;;-145.18;100.00;46676.03;4964123;28;20011;-65
2022/03/28 10:53:51;;;;;;;33.00;16.63;;;;;;;-145.18;100.00;46928.00;4963326;28;20035;-65
2022/03/28 10:56:20;;;;;;;37.70;16.87;;;;;;;-145.18;100.00;47072.56;4953303;28;20069;-65
2022/03/28 10:58:54;;;;;;;29.77;15.80;;;;;;;-145.18;100.00;46746.34;4970512;28;20030;-65
2022/03/28 11:01:29;;;;;;;33.90;18.77;;;;;;;-145.18;100.00;46705.31;4970690;28;20081;-65